sensor_id;sensor_type;location;lat;lon;timestamp;P1;durP1;ratioP1;P2;durP2;ratioP2
1414;SDS011;702;49.466;11.086;2023-01-29T00:01:35;6.97;;;6.10;;
1414;SDS011;702;49.466;11.086;2023-01-29T00:04:03;9.17;;;6.43;;
1414;SDS011;702;49.466;11.086;2023-01-29T00:06:30;8.20;;;6.50;;
1414;SDS011;702;49.466;11.086;2023-01-29T00:09:03;8.17;;;6.27;;
1414;SDS011;702;49.466;11.086;2023-01-29T00:11:32;7.00;;;6.30;;
1414;SDS011;702;49.466;11.086;2023-01-29T00:14:00;6.00;;;5.40;;
1414;SDS011;702;49.466;11.086;2023-01-29T00:16:29;7.30;;;6.57;;
1414;SDS011;702;49.466;11.086;2023-01-29T00:18:56;7.33;;;6.63;;
1414;SDS011;702;49.466;11.086;2023-01-29T00:21:24;7.43;;;6.33;;
1414;SDS011;702;49.466;11.086;2023-01-29T00:23:52;9.30;;;6.60;;
1414;SDS011;702;49.466;11.086;2023-01-29T00:26:20;6.97;;;6.37;;
1414;SDS011;702;49.466;11.086;2023-01-29T00:28:48;7.53;;;6.37;;
1414;SDS011;702;49.466;11.086;2023-01-29T00:31:16;8.13;;;6.57;;
1414;SDS011;702;49.466;11.086;2023-01-29T00:33:47;8.70;;;6.80;;
1414;SDS011;702;49.466;11.086;2023-01-29T00:36:16;7.50;;;6.70;;
1414;SDS011;702;49.466;11.086;2023-01-29T00:38:45;7.10;;;6.40;;
1414;SDS011;702;49.466;11.086;2023-01-29T00:41:24;8.67;;;6.83;;
1414;SDS011;702;49.466;11.086;2023-01-29T00:44:11;6.47;;;5.87;;
1414;SDS011;702;49.466;11.086;2023-01-29T00:46:56;7.00;;;5.80;;
1414;SDS011;702;49.466;11.086;2023-01-29T00:49:25;7.43;;;6.53;;
1414;SDS011;702;49.466;11.086;2023-01-29T00:51:55;7.80;;;7.10;;
1414;SDS011;702;49.466;11.086;2023-01-29T00:54:40;10.17;;;7.00;;
1414;SDS011;702;49.466;11.086;2023-01-29T00:57:07;9.10;;;6.80;;
1414;SDS011;702;49.466;11.086;2023-01-29T00:59:34;8.23;;;7.43;;
1414;SDS011;702;49.466;11.086;2023-01-29T01:02:02;7.57;;;6.83;;
1414;SDS011;702;49.466;11.086;2023-01-29T01:04:48;7.10;;;5.77;;
1414;SDS011;702;49.466;11.086;2023-01-29T01:07:15;6.77;;;5.93;;
1414;SDS011;702;49.466;11.086;2023-01-29T01:09:43;8.53;;;6.70;;
1414;SDS011;702;49.466;11.086;2023-01-29T01:12:36;9.27;;;6.43;;
1414;SDS011;702;49.466;11.086;2023-01-29T01:15:04;7.47;;;6.77;;
1414;SDS011;702;49.466;11.086;2023-01-29T01:17:32;6.37;;;5.53;;
1414;SDS011;702;49.466;11.086;2023-01-29T01:20:01;7.63;;;6.30;;
1414;SDS011;702;49.466;11.086;2023-01-29T01:22:28;7.60;;;6.90;;
1414;SDS011;702;49.466;11.086;2023-01-29T01:24:56;8.73;;;6.73;;
1414;SDS011;702;49.466;11.086;2023-01-29T01:27:24;7.93;;;6.67;;
1414;SDS011;702;49.466;11.086;2023-01-29T01:29:51;5.93;;;5.40;;
1414;SDS011;702;49.466;11.086;2023-01-29T01:32:19;6.57;;;5.97;;
1414;SDS011;702;49.466;11.086;2023-01-29T01:34:46;9.23;;;6.60;;
1414;SDS011;702;49.466;11.086;2023-01-29T01:37:14;6.83;;;6.10;;
1414;SDS011;702;49.466;11.086;2023-01-29T01:39:42;7.17;;;6.47;;
1414;SDS011;702;49.466;11.086;2023-01-29T01:42:15;7.73;;;6.43;;
1414;SDS011;702;49.466;11.086;2023-01-29T01:44:52;6.90;;;6.20;;
1414;SDS011;702;49.466;11.086;2023-01-29T01:47:24;8.00;;;7.20;;
1414;SDS011;702;49.466;11.086;2023-01-29T01:49:58;6.97;;;6.27;;
1414;SDS011;702;49.466;11.086;2023-01-29T01:52:34;7.60;;;6.67;;
1414;SDS011;702;49.466;11.086;2023-01-29T01:55:06;6.73;;;6.13;;
1414;SDS011;702;49.466;11.086;2023-01-29T01:57:38;6.97;;;6.20;;
1414;SDS011;702;49.466;11.086;2023-01-29T02:00:08;7.03;;;6.33;;
1414;SDS011;702;49.466;11.086;2023-01-29T02:02:40;7.87;;;7.07;;
1414;SDS011;702;49.466;11.086;2023-01-29T02:05:28;7.60;;;6.73;;
1414;SDS011;702;49.466;11.086;2023-01-29T02:08:15;6.77;;;6.10;;
1414;SDS011;702;49.466;11.086;2023-01-29T02:11:06;9.20;;;7.17;;
1414;SDS011;702;49.466;11.086;2023-01-29T02:13:33;8.30;;;7.03;;
1414;SDS011;702;49.466;11.086;2023-01-29T02:16:01;8.70;;;7.80;;
1414;SDS011;702;49.466;11.086;2023-01-29T02:18:29;7.47;;;6.60;;
1414;SDS011;702;49.466;11.086;2023-01-29T02:21:05;7.63;;;6.90;;
1414;SDS011;702;49.466;11.086;2023-01-29T02:24:07;7.40;;;6.00;;
1414;SDS011;702;49.466;11.086;2023-01-29T02:26:57;7.83;;;6.10;;
1414;SDS011;702;49.466;11.086;2023-01-29T02:29:34;6.07;;;5.57;;
1414;SDS011;702;49.466;11.086;2023-01-29T02:32:15;6.87;;;6.17;;
1414;SDS011;702;49.466;11.086;2023-01-29T02:34:57;6.93;;;6.00;;
1414;SDS011;702;49.466;11.086;2023-01-29T02:37:56;6.23;;;5.73;;
1414;SDS011;702;49.466;11.086;2023-01-29T02:40:36;6.60;;;5.90;;
1414;SDS011;702;49.466;11.086;2023-01-29T02:43:14;6.53;;;5.93;;
1414;SDS011;702;49.466;11.086;2023-01-29T02:45:55;7.40;;;6.10;;
1414;SDS011;702;49.466;11.086;2023-01-29T02:48:35;6.93;;;5.50;;
1414;SDS011;702;49.466;11.086;2023-01-29T02:51:07;8.10;;;6.30;;
1414;SDS011;702;49.466;11.086;2023-01-29T02:53:45;7.90;;;6.10;;
1414;SDS011;702;49.466;11.086;2023-01-29T02:56:25;6.67;;;5.90;;
1414;SDS011;702;49.466;11.086;2023-01-29T02:58:58;7.90;;;6.40;;
1414;SDS011;702;49.466;11.086;2023-01-29T03:01:34;7.20;;;6.27;;
1414;SDS011;702;49.466;11.086;2023-01-29T03:04:08;7.30;;;6.50;;
1414;SDS011;702;49.466;11.086;2023-01-29T03:06:40;7.50;;;6.70;;
1414;SDS011;702;49.466;11.086;2023-01-29T03:09:11;8.67;;;6.90;;
1414;SDS011;702;49.466;11.086;2023-01-29T03:11:46;7.30;;;6.50;;
1414;SDS011;702;49.466;11.086;2023-01-29T03:14:19;9.43;;;6.20;;
1414;SDS011;702;49.466;11.086;2023-01-29T03:17:15;8.30;;;6.67;;
1414;SDS011;702;49.466;11.086;2023-01-29T03:19:42;7.30;;;6.60;;
1414;SDS011;702;49.466;11.086;2023-01-29T03:22:12;7.60;;;6.83;;
1414;SDS011;702;49.466;11.086;2023-01-29T03:24:44;8.60;;;6.50;;
1414;SDS011;702;49.466;11.086;2023-01-29T03:27:34;6.30;;;5.70;;
1414;SDS011;702;49.466;11.086;2023-01-29T03:30:27;7.27;;;6.57;;
1414;SDS011;702;49.466;11.086;2023-01-29T03:33:18;7.10;;;6.40;;
1414;SDS011;702;49.466;11.086;2023-01-29T03:35:49;8.03;;;7.13;;
1414;SDS011;702;49.466;11.086;2023-01-29T03:38:24;6.50;;;5.90;;
1414;SDS011;702;49.466;11.086;2023-01-29T03:40:56;7.00;;;6.10;;
1414;SDS011;702;49.466;11.086;2023-01-29T03:43:29;6.40;;;5.80;;
1414;SDS011;702;49.466;11.086;2023-01-29T03:46:02;7.07;;;6.37;;
1414;SDS011;702;49.466;11.086;2023-01-29T03:48:36;6.90;;;6.17;;
1414;SDS011;702;49.466;11.086;2023-01-29T03:51:10;7.67;;;6.20;;
1414;SDS011;702;49.466;11.086;2023-01-29T03:53:51;7.00;;;6.07;;
1414;SDS011;702;49.466;11.086;2023-01-29T03:56:28;7.50;;;6.70;;
1414;SDS011;702;49.466;11.086;2023-01-29T03:59:12;6.77;;;6.17;;
1414;SDS011;702;49.466;11.086;2023-01-29T04:01:47;8.57;;;6.20;;
1414;SDS011;702;49.466;11.086;2023-01-29T04:04:22;7.63;;;6.60;;
1414;SDS011;702;49.466;11.086;2023-01-29T04:06:53;7.37;;;6.67;;
1414;SDS011;702;49.466;11.086;2023-01-29T04:09:28;7.60;;;6.80;;
1414;SDS011;702;49.466;11.086;2023-01-29T04:12:01;8.70;;;7.90;;
1414;SDS011;702;49.466;11.086;2023-01-29T04:14:33;7.43;;;6.73;;
1414;SDS011;702;49.466;11.086;2023-01-29T04:17:02;7.30;;;6.00;;
1414;SDS011;702;49.466;11.086;2023-01-29T04:19:36;7.37;;;6.50;;
1414;SDS011;702;49.466;11.086;2023-01-29T04:22:05;8.73;;;7.83;;
1414;SDS011;702;49.466;11.086;2023-01-29T04:24:39;8.10;;;6.70;;
1414;SDS011;702;49.466;11.086;2023-01-29T04:27:14;7.63;;;6.23;;
1414;SDS011;702;49.466;11.086;2023-01-29T04:30:02;8.07;;;7.27;;
1414;SDS011;702;49.466;11.086;2023-01-29T04:32:53;7.30;;;6.60;;
1414;SDS011;702;49.466;11.086;2023-01-29T04:35:34;10.27;;;7.80;;
1414;SDS011;702;49.466;11.086;2023-01-29T04:38:19;8.37;;;7.20;;
1414;SDS011;702;49.466;11.086;2023-01-29T04:41:04;9.97;;;7.37;;
1414;SDS011;702;49.466;11.086;2023-01-29T04:43:38;7.67;;;6.70;;
1414;SDS011;702;49.466;11.086;2023-01-29T04:46:12;7.83;;;7.13;;
1414;SDS011;702;49.466;11.086;2023-01-29T04:48:46;8.20;;;7.40;;
1414;SDS011;702;49.466;11.086;2023-01-29T04:51:31;8.53;;;7.70;;
1414;SDS011;702;49.466;11.086;2023-01-29T04:54:11;7.67;;;6.97;;
1414;SDS011;702;49.466;11.086;2023-01-29T04:56:50;9.17;;;7.37;;
1414;SDS011;702;49.466;11.086;2023-01-29T04:59:22;7.53;;;6.67;;
1414;SDS011;702;49.466;11.086;2023-01-29T05:01:56;8.20;;;7.40;;
1414;SDS011;702;49.466;11.086;2023-01-29T05:04:27;7.67;;;6.87;;
1414;SDS011;702;49.466;11.086;2023-01-29T05:06:59;9.27;;;7.03;;
1414;SDS011;702;49.466;11.086;2023-01-29T05:09:29;9.03;;;7.87;;
1414;SDS011;702;49.466;11.086;2023-01-29T05:11:58;8.50;;;7.50;;
1414;SDS011;702;49.466;11.086;2023-01-29T05:14:27;7.87;;;6.80;;
1414;SDS011;702;49.466;11.086;2023-01-29T05:17:00;8.17;;;7.10;;
1414;SDS011;702;49.466;11.086;2023-01-29T05:19:31;8.60;;;7.70;;
1414;SDS011;702;49.466;11.086;2023-01-29T05:22:00;9.17;;;7.33;;
1414;SDS011;702;49.466;11.086;2023-01-29T05:24:31;7.70;;;6.93;;
1414;SDS011;702;49.466;11.086;2023-01-29T05:26:58;7.43;;;6.40;;
1414;SDS011;702;49.466;11.086;2023-01-29T05:29:44;8.13;;;7.37;;
1414;SDS011;702;49.466;11.086;2023-01-29T05:32:12;8.20;;;7.50;;
1414;SDS011;702;49.466;11.086;2023-01-29T05:34:40;12.60;;;7.57;;
1414;SDS011;702;49.466;11.086;2023-01-29T05:37:09;9.47;;;7.47;;
1414;SDS011;702;49.466;11.086;2023-01-29T05:39:36;9.03;;;7.30;;
1414;SDS011;702;49.466;11.086;2023-01-29T05:42:04;8.10;;;7.30;;
1414;SDS011;702;49.466;11.086;2023-01-29T05:44:31;8.00;;;7.20;;
1414;SDS011;702;49.466;11.086;2023-01-29T05:46:58;9.10;;;6.23;;
1414;SDS011;702;49.466;11.086;2023-01-29T05:49:27;7.67;;;6.97;;
1414;SDS011;702;49.466;11.086;2023-01-29T05:51:54;11.40;;;6.57;;
1414;SDS011;702;49.466;11.086;2023-01-29T05:54:23;9.87;;;8.20;;
1414;SDS011;702;49.466;11.086;2023-01-29T05:56:50;9.40;;;7.50;;
1414;SDS011;702;49.466;11.086;2023-01-29T05:59:18;9.23;;;7.90;;
1414;SDS011;702;49.466;11.086;2023-01-29T06:01:46;8.27;;;7.30;;
1414;SDS011;702;49.466;11.086;2023-01-29T06:04:13;11.50;;;8.57;;
1414;SDS011;702;49.466;11.086;2023-01-29T06:06:40;8.63;;;7.83;;
1414;SDS011;702;49.466;11.086;2023-01-29T06:09:08;9.67;;;8.67;;
1414;SDS011;702;49.466;11.086;2023-01-29T06:11:37;11.20;;;8.93;;
1414;SDS011;702;49.466;11.086;2023-01-29T06:14:05;12.10;;;8.73;;
1414;SDS011;702;49.466;11.086;2023-01-29T06:16:32;9.33;;;8.17;;
1414;SDS011;702;49.466;11.086;2023-01-29T06:19:00;9.20;;;7.70;;
1414;SDS011;702;49.466;11.086;2023-01-29T06:21:27;9.80;;;8.50;;
1414;SDS011;702;49.466;11.086;2023-01-29T06:23:55;9.60;;;8.70;;
1414;SDS011;702;49.466;11.086;2023-01-29T06:26:22;10.80;;;8.90;;
1414;SDS011;702;49.466;11.086;2023-01-29T06:28:51;9.57;;;8.57;;
1414;SDS011;702;49.466;11.086;2023-01-29T06:31:18;12.67;;;9.07;;
1414;SDS011;702;49.466;11.086;2023-01-29T06:33:45;11.43;;;10.23;;
1414;SDS011;702;49.466;11.086;2023-01-29T06:36:12;14.07;;;9.10;;
1414;SDS011;702;49.466;11.086;2023-01-29T06:38:40;10.80;;;9.70;;
1414;SDS011;702;49.466;11.086;2023-01-29T06:41:10;10.13;;;8.53;;
1414;SDS011;702;49.466;11.086;2023-01-29T06:43:38;12.70;;;8.90;;
1414;SDS011;702;49.466;11.086;2023-01-29T06:46:07;10.63;;;9.47;;
1414;SDS011;702;49.466;11.086;2023-01-29T06:48:34;10.37;;;9.20;;
1414;SDS011;702;49.466;11.086;2023-01-29T06:51:02;10.80;;;9.70;;
1414;SDS011;702;49.466;11.086;2023-01-29T06:53:32;15.40;;;10.33;;
1414;SDS011;702;49.466;11.086;2023-01-29T06:56:00;11.80;;;9.60;;
1414;SDS011;702;49.466;11.086;2023-01-29T06:58:28;11.10;;;9.60;;
1414;SDS011;702;49.466;11.086;2023-01-29T07:01:01;11.37;;;9.53;;
1414;SDS011;702;49.466;11.086;2023-01-29T07:03:31;10.70;;;8.80;;
1414;SDS011;702;49.466;11.086;2023-01-29T07:05:58;13.60;;;9.67;;
1414;SDS011;702;49.466;11.086;2023-01-29T07:08:26;13.50;;;9.00;;
1414;SDS011;702;49.466;11.086;2023-01-29T07:10:57;10.40;;;8.40;;
1414;SDS011;702;49.466;11.086;2023-01-29T07:13:25;11.93;;;9.23;;
1414;SDS011;702;49.466;11.086;2023-01-29T07:15:52;14.27;;;10.00;;
1414;SDS011;702;49.466;11.086;2023-01-29T07:18:20;12.40;;;10.33;;
1414;SDS011;702;49.466;11.086;2023-01-29T07:20:48;9.77;;;8.77;;
1414;SDS011;702;49.466;11.086;2023-01-29T07:23:16;12.27;;;9.03;;
1414;SDS011;702;49.466;11.086;2023-01-29T07:25:43;12.13;;;9.33;;
1414;SDS011;702;49.466;11.086;2023-01-29T07:28:11;11.47;;;8.73;;
1414;SDS011;702;49.466;11.086;2023-01-29T07:30:38;14.63;;;9.33;;
1414;SDS011;702;49.466;11.086;2023-01-29T07:33:06;9.47;;;8.47;;
1414;SDS011;702;49.466;11.086;2023-01-29T07:35:35;10.83;;;9.20;;
1414;SDS011;702;49.466;11.086;2023-01-29T07:38:05;9.20;;;7.93;;
1414;SDS011;702;49.466;11.086;2023-01-29T07:40:33;11.30;;;9.67;;
1414;SDS011;702;49.466;11.086;2023-01-29T07:43:01;11.27;;;10.07;;
1414;SDS011;702;49.466;11.086;2023-01-29T07:45:32;12.93;;;9.50;;
1414;SDS011;702;49.466;11.086;2023-01-29T07:48:02;11.10;;;9.50;;
1414;SDS011;702;49.466;11.086;2023-01-29T07:50:30;10.73;;;9.53;;
1414;SDS011;702;49.466;11.086;2023-01-29T07:52:58;10.73;;;9.10;;
1414;SDS011;702;49.466;11.086;2023-01-29T07:55:28;11.73;;;9.00;;
1414;SDS011;702;49.466;11.086;2023-01-29T07:57:55;12.60;;;9.37;;
1414;SDS011;702;49.466;11.086;2023-01-29T08:00:23;9.60;;;8.70;;
1414;SDS011;702;49.466;11.086;2023-01-29T08:02:51;10.17;;;8.63;;
1414;SDS011;702;49.466;11.086;2023-01-29T08:05:18;11.13;;;9.20;;
1414;SDS011;702;49.466;11.086;2023-01-29T08:07:51;10.77;;;9.70;;
1414;SDS011;702;49.466;11.086;2023-01-29T08:10:19;11.23;;;9.60;;
1414;SDS011;702;49.466;11.086;2023-01-29T08:12:52;11.03;;;8.77;;
1414;SDS011;702;49.466;11.086;2023-01-29T08:15:20;10.77;;;8.50;;
1414;SDS011;702;49.466;11.086;2023-01-29T08:17:48;10.00;;;9.00;;
1414;SDS011;702;49.466;11.086;2023-01-29T08:20:15;13.57;;;9.47;;
1414;SDS011;702;49.466;11.086;2023-01-29T08:22:44;11.53;;;8.87;;
1414;SDS011;702;49.466;11.086;2023-01-29T08:25:11;11.43;;;10.10;;
1414;SDS011;702;49.466;11.086;2023-01-29T08:27:38;10.07;;;9.00;;
1414;SDS011;702;49.466;11.086;2023-01-29T08:30:09;12.10;;;9.23;;
1414;SDS011;702;49.466;11.086;2023-01-29T08:32:37;13.50;;;10.00;;
1414;SDS011;702;49.466;11.086;2023-01-29T08:35:05;10.30;;;9.20;;
1414;SDS011;702;49.466;11.086;2023-01-29T08:37:32;11.67;;;10.13;;
1414;SDS011;702;49.466;11.086;2023-01-29T08:40:00;10.57;;;9.57;;
1414;SDS011;702;49.466;11.086;2023-01-29T08:42:28;10.17;;;9.07;;
1414;SDS011;702;49.466;11.086;2023-01-29T08:44:55;9.97;;;8.97;;
1414;SDS011;702;49.466;11.086;2023-01-29T08:47:24;10.47;;;9.50;;
1414;SDS011;702;49.466;11.086;2023-01-29T08:49:51;12.67;;;10.20;;
1414;SDS011;702;49.466;11.086;2023-01-29T08:52:18;11.50;;;10.07;;
1414;SDS011;702;49.466;11.086;2023-01-29T08:54:45;11.50;;;9.77;;
1414;SDS011;702;49.466;11.086;2023-01-29T08:57:12;11.90;;;10.63;;
1414;SDS011;702;49.466;11.086;2023-01-29T08:59:39;15.23;;;11.47;;
1414;SDS011;702;49.466;11.086;2023-01-29T09:02:09;11.40;;;10.00;;
1414;SDS011;702;49.466;11.086;2023-01-29T09:04:38;10.63;;;9.20;;
1414;SDS011;702;49.466;11.086;2023-01-29T09:07:05;11.43;;;9.93;;
1414;SDS011;702;49.466;11.086;2023-01-29T09:09:33;10.67;;;9.53;;
1414;SDS011;702;49.466;11.086;2023-01-29T09:12:00;10.97;;;9.83;;
1414;SDS011;702;49.466;11.086;2023-01-29T09:14:27;9.80;;;8.80;;
1414;SDS011;702;49.466;11.086;2023-01-29T09:16:54;19.20;;;12.63;;
1414;SDS011;702;49.466;11.086;2023-01-29T09:19:22;12.73;;;10.37;;
1414;SDS011;702;49.466;11.086;2023-01-29T09:21:51;11.93;;;9.93;;
1414;SDS011;702;49.466;11.086;2023-01-29T09:24:18;11.40;;;9.83;;
1414;SDS011;702;49.466;11.086;2023-01-29T09:26:45;12.20;;;10.90;;
1414;SDS011;702;49.466;11.086;2023-01-29T09:29:12;10.77;;;9.67;;
1414;SDS011;702;49.466;11.086;2023-01-29T09:31:40;13.07;;;9.23;;
1414;SDS011;702;49.466;11.086;2023-01-29T09:34:07;11.60;;;9.83;;
1414;SDS011;702;49.466;11.086;2023-01-29T09:36:34;12.83;;;10.53;;
1414;SDS011;702;49.466;11.086;2023-01-29T09:39:03;11.70;;;8.90;;
1414;SDS011;702;49.466;11.086;2023-01-29T09:41:36;9.80;;;8.80;;
1414;SDS011;702;49.466;11.086;2023-01-29T09:44:18;13.17;;;10.77;;
1414;SDS011;702;49.466;11.086;2023-01-29T09:46:59;12.23;;;10.40;;
1414;SDS011;702;49.466;11.086;2023-01-29T09:49:32;15.70;;;12.00;;
1414;SDS011;702;49.466;11.086;2023-01-29T09:52:06;12.90;;;9.33;;
1414;SDS011;702;49.466;11.086;2023-01-29T09:54:45;11.00;;;9.37;;
1414;SDS011;702;49.466;11.086;2023-01-29T09:57:23;10.43;;;9.33;;
1414;SDS011;702;49.466;11.086;2023-01-29T09:59:54;11.53;;;10.20;;
1414;SDS011;702;49.466;11.086;2023-01-29T10:02:27;11.63;;;10.27;;
1414;SDS011;702;49.466;11.086;2023-01-29T10:05:21;17.70;;;13.13;;
1414;SDS011;702;49.466;11.086;2023-01-29T10:08:14;23.67;;;12.53;;
1414;SDS011;702;49.466;11.086;2023-01-29T10:10:56;13.20;;;11.20;;
1414;SDS011;702;49.466;11.086;2023-01-29T10:13:36;11.40;;;10.20;;
1414;SDS011;702;49.466;11.086;2023-01-29T10:16:15;18.90;;;11.00;;
1414;SDS011;702;49.466;11.086;2023-01-29T10:19:03;12.40;;;11.10;;
1414;SDS011;702;49.466;11.086;2023-01-29T10:22:02;23.10;;;17.47;;
1414;SDS011;702;49.466;11.086;2023-01-29T10:25:00;14.10;;;10.10;;
1414;SDS011;702;49.466;11.086;2023-01-29T10:27:33;17.03;;;11.33;;
1414;SDS011;702;49.466;11.086;2023-01-29T10:30:21;20.73;;;12.93;;
1414;SDS011;702;49.466;11.086;2023-01-29T10:32:58;13.20;;;10.03;;
1414;SDS011;702;49.466;11.086;2023-01-29T10:35:30;11.87;;;9.47;;
1414;SDS011;702;49.466;11.086;2023-01-29T10:38:07;12.70;;;10.50;;
1414;SDS011;702;49.466;11.086;2023-01-29T10:40:53;16.00;;;10.70;;
1414;SDS011;702;49.466;11.086;2023-01-29T10:43:35;12.50;;;10.23;;
1414;SDS011;702;49.466;11.086;2023-01-29T10:46:13;10.30;;;9.10;;
1414;SDS011;702;49.466;11.086;2023-01-29T10:48:54;11.73;;;9.70;;
1414;SDS011;702;49.466;11.086;2023-01-29T10:51:41;11.50;;;9.30;;
1414;SDS011;702;49.466;11.086;2023-01-29T10:54:34;12.23;;;10.00;;
1414;SDS011;702;49.466;11.086;2023-01-29T10:57:17;11.43;;;9.00;;
1414;SDS011;702;49.466;11.086;2023-01-29T11:02:50;12.83;;;9.37;;
1414;SDS011;702;49.466;11.086;2023-01-29T11:05:19;12.40;;;10.17;;
1414;SDS011;702;49.466;11.086;2023-01-29T11:07:55;12.00;;;9.37;;
1414;SDS011;702;49.466;11.086;2023-01-29T11:10:30;10.57;;;9.17;;
1414;SDS011;702;49.466;11.086;2023-01-29T11:13:02;13.60;;;10.17;;
1414;SDS011;702;49.466;11.086;2023-01-29T11:15:32;12.30;;;9.77;;
1414;SDS011;702;49.466;11.086;2023-01-29T11:18:00;15.47;;;9.97;;
1414;SDS011;702;49.466;11.086;2023-01-29T11:20:30;12.13;;;9.30;;
1414;SDS011;702;49.466;11.086;2023-01-29T11:22:59;10.70;;;9.20;;
1414;SDS011;702;49.466;11.086;2023-01-29T11:25:26;11.03;;;9.67;;
1414;SDS011;702;49.466;11.086;2023-01-29T11:27:57;11.37;;;10.20;;
1414;SDS011;702;49.466;11.086;2023-01-29T11:30:26;13.77;;;10.33;;
1414;SDS011;702;49.466;11.086;2023-01-29T11:32:59;13.30;;;10.13;;
1414;SDS011;702;49.466;11.086;2023-01-29T11:35:43;11.40;;;9.63;;
1414;SDS011;702;49.466;11.086;2023-01-29T11:38:17;11.33;;;9.73;;
1414;SDS011;702;49.466;11.086;2023-01-29T11:40:51;12.57;;;9.97;;
1414;SDS011;702;49.466;11.086;2023-01-29T11:43:31;11.73;;;10.23;;
1414;SDS011;702;49.466;11.086;2023-01-29T11:45:59;13.63;;;10.57;;
1414;SDS011;702;49.466;11.086;2023-01-29T11:48:38;11.50;;;10.03;;
1414;SDS011;702;49.466;11.086;2023-01-29T11:51:09;14.93;;;10.60;;
1414;SDS011;702;49.466;11.086;2023-01-29T11:53:48;15.20;;;10.90;;
1414;SDS011;702;49.466;11.086;2023-01-29T11:56:19;13.40;;;10.70;;
1414;SDS011;702;49.466;11.086;2023-01-29T11:58:50;11.77;;;10.13;;
1414;SDS011;702;49.466;11.086;2023-01-29T12:01:26;13.17;;;9.83;;
1414;SDS011;702;49.466;11.086;2023-01-29T12:04:10;10.90;;;9.80;;
1414;SDS011;702;49.466;11.086;2023-01-29T12:06:44;11.90;;;10.20;;
1414;SDS011;702;49.466;11.086;2023-01-29T12:09:16;11.47;;;10.27;;
1414;SDS011;702;49.466;11.086;2023-01-29T12:11:47;13.23;;;10.03;;
1414;SDS011;702;49.466;11.086;2023-01-29T12:14:25;12.00;;;10.10;;
1414;SDS011;702;49.466;11.086;2023-01-29T12:16:58;13.07;;;10.83;;
1414;SDS011;702;49.466;11.086;2023-01-29T12:19:33;10.43;;;9.33;;
1414;SDS011;702;49.466;11.086;2023-01-29T12:22:07;12.57;;;10.70;;
1414;SDS011;702;49.466;11.086;2023-01-29T12:24:42;12.13;;;10.20;;
1414;SDS011;702;49.466;11.086;2023-01-29T12:27:20;12.80;;;10.73;;
1414;SDS011;702;49.466;11.086;2023-01-29T12:30:04;12.37;;;10.23;;
1414;SDS011;702;49.466;11.086;2023-01-29T12:32:42;11.30;;;10.20;;
1414;SDS011;702;49.466;11.086;2023-01-29T12:35:20;12.83;;;10.47;;
1414;SDS011;702;49.466;11.086;2023-01-29T12:37:54;13.67;;;11.10;;
1414;SDS011;702;49.466;11.086;2023-01-29T12:40:27;12.90;;;11.23;;
1414;SDS011;702;49.466;11.086;2023-01-29T12:43:00;11.10;;;9.80;;
1414;SDS011;702;49.466;11.086;2023-01-29T12:45:36;12.67;;;10.30;;
1414;SDS011;702;49.466;11.086;2023-01-29T12:48:05;13.03;;;10.67;;
1414;SDS011;702;49.466;11.086;2023-01-29T12:50:38;11.80;;;10.17;;
1414;SDS011;702;49.466;11.086;2023-01-29T12:53:07;15.40;;;11.47;;
1414;SDS011;702;49.466;11.086;2023-01-29T12:55:51;14.70;;;10.73;;
1414;SDS011;702;49.466;11.086;2023-01-29T12:58:26;13.77;;;10.23;;
1414;SDS011;702;49.466;11.086;2023-01-29T13:01:00;12.43;;;10.90;;
1414;SDS011;702;49.466;11.086;2023-01-29T13:03:37;11.67;;;10.03;;
1414;SDS011;702;49.466;11.086;2023-01-29T13:06:14;10.87;;;8.27;;
1414;SDS011;702;49.466;11.086;2023-01-29T13:08:47;11.70;;;9.87;;
1414;SDS011;702;49.466;11.086;2023-01-29T13:11:18;10.30;;;8.20;;
1414;SDS011;702;49.466;11.086;2023-01-29T13:13:49;10.13;;;9.03;;
1414;SDS011;702;49.466;11.086;2023-01-29T13:16:22;9.07;;;8.17;;
1414;SDS011;702;49.466;11.086;2023-01-29T13:18:53;12.83;;;9.50;;
1414;SDS011;702;49.466;11.086;2023-01-29T13:21:25;12.53;;;10.00;;
1414;SDS011;702;49.466;11.086;2023-01-29T13:23:58;12.20;;;10.07;;
1414;SDS011;702;49.466;11.086;2023-01-29T13:26:29;11.23;;;9.87;;
1414;SDS011;702;49.466;11.086;2023-01-29T13:28:58;12.40;;;10.40;;
1414;SDS011;702;49.466;11.086;2023-01-29T13:31:27;12.53;;;10.70;;
1414;SDS011;702;49.466;11.086;2023-01-29T13:34:06;11.40;;;9.63;;
1414;SDS011;702;49.466;11.086;2023-01-29T13:36:41;13.23;;;9.50;;
1414;SDS011;702;49.466;11.086;2023-01-29T13:39:19;13.83;;;9.73;;
1414;SDS011;702;49.466;11.086;2023-01-29T13:41:50;10.10;;;8.20;;
1414;SDS011;702;49.466;11.086;2023-01-29T13:44:20;10.10;;;8.37;;
1414;SDS011;702;49.466;11.086;2023-01-29T13:46:52;12.10;;;7.80;;
1414;SDS011;702;49.466;11.086;2023-01-29T13:49:26;10.80;;;8.17;;
1414;SDS011;702;49.466;11.086;2023-01-29T13:52:14;10.60;;;8.30;;
1414;SDS011;702;49.466;11.086;2023-01-29T13:54:51;19.03;;;9.90;;
1414;SDS011;702;49.466;11.086;2023-01-29T13:57:36;9.00;;;7.77;;
1414;SDS011;702;49.466;11.086;2023-01-29T14:06:42;11.73;;;8.77;;
1414;SDS011;702;49.466;11.086;2023-01-29T14:09:34;9.47;;;7.50;;
1414;SDS011;702;49.466;11.086;2023-01-29T14:12:31;7.93;;;7.13;;
1414;SDS011;702;49.466;11.086;2023-01-29T14:17:59;8.53;;;7.57;;
1414;SDS011;702;49.466;11.086;2023-01-29T14:20:55;10.70;;;7.50;;
1414;SDS011;702;49.466;11.086;2023-01-29T14:23:33;10.90;;;7.70;;
1414;SDS011;702;49.466;11.086;2023-01-29T14:26:22;10.17;;;7.50;;
1414;SDS011;702;49.466;11.086;2023-01-29T14:28:56;11.47;;;8.17;;
1414;SDS011;702;49.466;11.086;2023-01-29T14:31:28;9.93;;;8.50;;
1414;SDS011;702;49.466;11.086;2023-01-29T14:34:01;9.83;;;8.07;;
1414;SDS011;702;49.466;11.086;2023-01-29T14:36:37;11.73;;;8.20;;
1414;SDS011;702;49.466;11.086;2023-01-29T14:39:06;8.90;;;7.70;;
1414;SDS011;702;49.466;11.086;2023-01-29T14:41:49;13.00;;;9.47;;
1414;SDS011;702;49.466;11.086;2023-01-29T14:50:37;13.70;;;8.57;;
1414;SDS011;702;49.466;11.086;2023-01-29T14:53:21;10.10;;;8.67;;
1414;SDS011;702;49.466;11.086;2023-01-29T14:56:20;11.60;;;8.40;;
1414;SDS011;702;49.466;11.086;2023-01-29T14:58:58;10.83;;;9.20;;
1414;SDS011;702;49.466;11.086;2023-01-29T15:01:38;9.90;;;7.90;;
1414;SDS011;702;49.466;11.086;2023-01-29T15:04:13;9.17;;;7.57;;
1414;SDS011;702;49.466;11.086;2023-01-29T15:06:47;13.50;;;9.50;;
1414;SDS011;702;49.466;11.086;2023-01-29T15:09:24;11.00;;;9.03;;
1414;SDS011;702;49.466;11.086;2023-01-29T15:12:05;8.13;;;6.80;;
1414;SDS011;702;49.466;11.086;2023-01-29T15:14:47;10.73;;;7.97;;
1414;SDS011;702;49.466;11.086;2023-01-29T15:17:26;11.13;;;9.17;;
1414;SDS011;702;49.466;11.086;2023-01-29T15:19:57;11.00;;;8.77;;
1414;SDS011;702;49.466;11.086;2023-01-29T15:22:24;11.00;;;8.37;;
1414;SDS011;702;49.466;11.086;2023-01-29T15:25:04;9.67;;;8.37;;
1414;SDS011;702;49.466;11.086;2023-01-29T15:27:36;14.80;;;9.37;;
1414;SDS011;702;49.466;11.086;2023-01-29T15:30:13;11.03;;;9.00;;
1414;SDS011;702;49.466;11.086;2023-01-29T15:32:43;11.83;;;8.80;;
1414;SDS011;702;49.466;11.086;2023-01-29T15:35:17;14.20;;;9.27;;
1414;SDS011;702;49.466;11.086;2023-01-29T15:37:57;11.30;;;8.43;;
1414;SDS011;702;49.466;11.086;2023-01-29T15:40:27;13.07;;;9.17;;
1414;SDS011;702;49.466;11.086;2023-01-29T15:42:54;12.90;;;9.50;;
1414;SDS011;702;49.466;11.086;2023-01-29T15:45:24;11.83;;;9.10;;
1414;SDS011;702;49.466;11.086;2023-01-29T15:47:57;11.90;;;9.17;;
1414;SDS011;702;49.466;11.086;2023-01-29T15:50:29;10.53;;;8.53;;
1414;SDS011;702;49.466;11.086;2023-01-29T15:53:02;11.37;;;9.00;;
1414;SDS011;702;49.466;11.086;2023-01-29T15:55:34;8.27;;;7.30;;
1414;SDS011;702;49.466;11.086;2023-01-29T15:58:01;14.07;;;8.87;;
1414;SDS011;702;49.466;11.086;2023-01-29T16:00:32;10.60;;;8.27;;
1414;SDS011;702;49.466;11.086;2023-01-29T16:03:05;14.43;;;8.73;;